createdAt,value
2018-06-21T00:01:47.701Z,10.63
2018-06-21T00:04:15.682Z,10.50
2018-06-21T00:06:43.449Z,10.80
2018-06-21T00:09:11.200Z,10.17
2018-06-21T00:11:39.333Z,10.10
2018-06-21T00:14:07.071Z,10.70
2018-06-21T00:16:34.827Z,10.43
2018-06-21T00:19:02.590Z,10.67
2018-06-21T00:21:30.296Z,10.83
2018-06-21T00:23:58.118Z,11.47
2018-06-21T00:26:25.831Z,11.70
2018-06-21T00:28:53.595Z,12.37
2018-06-21T00:31:21.471Z,11.60
2018-06-21T00:33:49.239Z,10.20
2018-06-21T00:36:17.312Z,10.90
2018-06-21T00:38:45.155Z,12.43
2018-06-21T00:41:13.323Z,13.17
2018-06-21T00:43:41.100Z,11.80
2018-06-21T00:46:08.994Z,10.97
2018-06-21T00:48:36.798Z,11.37
2018-06-21T00:51:04.518Z,11.90
2018-06-21T00:53:32.289Z,11.10
2018-06-21T00:56:11.694Z,12.53
2018-06-21T00:58:39.258Z,11.20
2018-06-21T01:01:07.101Z,10.73
2018-06-21T01:03:34.805Z,11.20
2018-06-21T01:06:02.533Z,11.70
2018-06-21T01:08:30.345Z,10.97
2018-06-21T01:10:58.102Z,11.73
2018-06-21T01:13:26.166Z,11.53
2018-06-21T01:15:54.010Z,12.80
2018-06-21T01:18:21.783Z,12.47
2018-06-21T01:20:49.581Z,11.90
2018-06-21T01:23:17.527Z,12.73
2018-06-21T01:25:45.314Z,11.33
2018-06-21T01:28:13.136Z,12.93
2018-06-21T01:30:40.870Z,14.17
2018-06-21T01:33:08.596Z,12.23
2018-06-21T01:35:36.462Z,11.83
2018-06-21T01:38:04.217Z,11.60
2018-06-21T01:40:31.972Z,11.97
2018-06-21T01:42:59.824Z,14.53
2018-06-21T01:45:27.634Z,12.90
2018-06-21T01:47:55.462Z,11.83
2018-06-21T01:50:23.209Z,11.20
2018-06-21T01:52:50.913Z,12.50
2018-06-21T01:55:18.831Z,11.97
2018-06-21T01:57:47.788Z,12.63
2018-06-21T02:00:15.635Z,12.53
2018-06-21T02:02:43.370Z,13.43
2018-06-21T02:05:11.078Z,12.03
2018-06-21T02:07:38.992Z,12.43
2018-06-21T02:10:06.986Z,13.47
2018-06-21T02:12:34.711Z,13.30
2018-06-21T02:15:02.606Z,12.13
2018-06-21T02:17:30.367Z,12.37
2018-06-21T02:19:58.082Z,11.53
2018-06-21T02:22:25.869Z,12.50
2018-06-21T02:24:53.611Z,11.67
2018-06-21T02:27:21.444Z,12.37
2018-06-21T02:29:49.206Z,12.00
2018-06-21T02:32:17.018Z,13.57
2018-06-21T02:34:44.709Z,13.03
2018-06-21T02:37:12.399Z,12.90
2018-06-21T02:39:40.187Z,12.97
2018-06-21T02:42:08.013Z,12.60
2018-06-21T02:44:35.812Z,13.10
2018-06-21T02:47:03.559Z,12.70
2018-06-21T02:49:31.309Z,14.50
2018-06-21T02:51:59.092Z,12.70
2018-06-21T02:54:26.870Z,13.00
2018-06-21T02:56:54.606Z,13.93
2018-06-21T02:59:22.325Z,14.50
2018-06-21T03:01:50.065Z,14.60
2018-06-21T03:04:17.915Z,13.50
2018-06-21T03:06:45.629Z,14.93
2018-06-21T03:09:13.480Z,16.73
2018-06-21T03:11:41.216Z,16.50
2018-06-21T03:14:09.290Z,15.77
2018-06-21T03:16:37.035Z,13.87
2018-06-21T03:19:04.758Z,14.53
2018-06-21T03:21:32.577Z,15.10
2018-06-21T03:24:00.426Z,13.47
2018-06-21T03:26:28.196Z,12.73
2018-06-21T03:28:55.938Z,13.20
2018-06-21T03:31:23.994Z,13.90
2018-06-21T03:33:51.750Z,13.00
2018-06-21T03:36:19.536Z,13.20
2018-06-21T03:38:47.462Z,13.10
2018-06-21T03:41:15.208Z,12.40
2018-06-21T03:43:42.950Z,13.30
2018-06-21T03:46:10.686Z,12.43
2018-06-21T03:48:38.407Z,12.13
2018-06-21T03:51:06.237Z,14.40
2018-06-21T03:53:34.002Z,14.20
2018-06-21T03:56:01.718Z,13.93
2018-06-21T03:58:29.457Z,13.33
2018-06-21T04:00:57.210Z,12.93
2018-06-21T04:03:25.069Z,12.07
2018-06-21T04:05:53.037Z,12.63
2018-06-21T04:08:20.850Z,12.67
2018-06-21T04:10:48.605Z,13.50
2018-06-21T04:13:16.369Z,12.70
2018-06-21T04:15:44.115Z,13.37
2018-06-21T04:18:11.870Z,13.83
2018-06-21T04:20:39.577Z,13.50
2018-06-21T04:23:07.754Z,14.03
2018-06-21T04:25:35.786Z,14.67
2018-06-21T04:28:03.571Z,13.63
2018-06-21T04:30:31.334Z,14.17
2018-06-21T04:32:59.130Z,13.67
2018-06-21T04:35:27.287Z,14.43
2018-06-21T04:37:55.125Z,15.17
2018-06-21T04:40:22.805Z,13.13
2018-06-21T04:42:50.509Z,12.47
2018-06-21T04:45:18.304Z,13.50
2018-06-21T04:47:46.210Z,12.83
2018-06-21T04:50:13.962Z,13.23
2018-06-21T04:52:41.779Z,13.00
2018-06-21T04:55:09.494Z,14.40
2018-06-21T04:57:37.250Z,13.70
2018-06-21T05:00:05.119Z,13.77
2018-06-21T05:02:32.922Z,14.63
2018-06-21T05:05:00.691Z,12.70
2018-06-21T05:07:28.644Z,12.63
2018-06-21T05:09:56.424Z,13.67
2018-06-21T05:12:24.162Z,12.47
2018-06-21T05:14:52.629Z,12.30
2018-06-21T05:17:20.550Z,11.40
2018-06-21T05:19:48.434Z,10.77
2018-06-21T05:22:16.202Z,11.00
2018-06-21T05:24:43.966Z,10.80
2018-06-21T05:27:11.732Z,12.63
2018-06-21T05:29:39.529Z,12.20
2018-06-21T05:32:07.270Z,12.37
2018-06-21T05:34:34.995Z,12.63
2018-06-21T05:37:03.883Z,13.30
2018-06-21T05:39:32.682Z,11.97
2018-06-21T05:42:00.433Z,11.70
2018-06-21T05:44:28.199Z,16.40
2018-06-21T05:46:56.005Z,14.50
2018-06-21T05:49:23.722Z,13.37
2018-06-21T05:51:51.501Z,17.73
2018-06-21T05:54:19.253Z,12.63
2018-06-21T05:56:47.089Z,13.17
2018-06-21T05:59:14.785Z,13.50
2018-06-21T06:01:42.549Z,11.87
2018-06-21T06:04:10.310Z,14.70
2018-06-21T06:06:38.776Z,10.93
2018-06-21T06:09:08.233Z,14.27
2018-06-21T06:11:36.658Z,12.30
2018-06-21T06:14:05.559Z,9.17
2018-06-21T06:16:33.303Z,9.47
2018-06-21T06:19:01.101Z,8.43
2018-06-21T06:21:28.839Z,7.63
2018-06-21T06:23:56.597Z,7.47
2018-06-21T06:26:24.340Z,7.73
2018-06-21T06:28:52.327Z,15.53
2018-06-21T06:31:20.051Z,6.37
2018-06-21T06:33:48.123Z,6.93
2018-06-21T06:36:15.913Z,6.90
2018-06-21T06:38:43.641Z,6.77
2018-06-21T06:41:11.459Z,7.00
2018-06-21T06:43:39.190Z,6.47
2018-06-21T06:46:06.976Z,6.80
2018-06-21T06:48:34.671Z,7.07
2018-06-21T06:51:02.379Z,6.90
2018-06-21T06:53:30.064Z,8.03
2018-06-21T06:55:58.116Z,6.43
2018-06-21T06:58:28.360Z,7.20
2018-06-21T07:00:58.830Z,6.90
2018-06-21T07:03:26.593Z,6.40
2018-06-21T07:05:54.712Z,7.07
2018-06-21T07:08:22.868Z,6.67
2018-06-21T07:10:50.673Z,6.93
2018-06-21T07:13:18.409Z,6.13
2018-06-21T07:15:46.264Z,6.40
2018-06-21T07:18:14.017Z,6.57
2018-06-21T07:20:41.780Z,6.73
2018-06-21T07:23:09.568Z,7.03
2018-06-21T07:25:37.324Z,7.13
2018-06-21T07:28:05.887Z,6.37
2018-06-21T07:30:33.594Z,6.00
2018-06-21T07:33:01.352Z,5.63
2018-06-21T07:35:29.031Z,6.17
2018-06-21T07:37:58.411Z,6.27
2018-06-21T07:40:26.388Z,6.13
2018-06-21T07:42:54.084Z,5.93
2018-06-21T07:45:33.955Z,5.90
2018-06-21T07:48:01.697Z,6.80
2018-06-21T07:50:43.389Z,5.53
2018-06-21T07:53:11.912Z,5.60
2018-06-21T07:55:39.909Z,5.50
2018-06-21T07:58:07.813Z,5.93
2018-06-21T08:00:35.928Z,5.37
2018-06-21T08:03:03.812Z,5.43
2018-06-21T08:05:31.818Z,8.33
2018-06-21T08:07:59.788Z,5.83
2018-06-21T08:10:28.264Z,6.90
2018-06-21T08:12:56.506Z,6.00
2018-06-21T08:15:24.237Z,7.57
2018-06-21T08:17:51.962Z,6.20
2018-06-21T08:20:19.960Z,5.00
2018-06-21T08:22:48.222Z,5.50
2018-06-21T08:28:08.817Z,5.80
2018-06-21T08:30:36.955Z,5.37
2018-06-21T08:33:04.798Z,5.30
2018-06-21T08:38:28.809Z,5.40
2018-06-21T08:40:57.608Z,5.77
2018-06-21T08:43:25.320Z,5.23
2018-06-21T08:45:53.229Z,5.43
2018-06-21T08:48:20.936Z,5.03
2018-06-21T08:50:48.764Z,4.87
2018-06-21T08:53:16.481Z,5.60
2018-06-21T08:55:44.260Z,5.80
2018-06-21T08:58:12.222Z,4.90
2018-06-21T09:00:39.984Z,5.43
2018-06-21T09:03:07.718Z,4.90
2018-06-21T09:08:13.690Z,5.10
2018-06-21T09:10:41.552Z,4.67
2018-06-21T09:13:09.695Z,4.50
2018-06-21T09:15:37.617Z,5.13
2018-06-21T09:18:05.450Z,5.10
2018-06-21T09:20:33.279Z,4.47
2018-06-21T09:23:01.230Z,5.60
2018-06-21T09:25:32.645Z,4.20
2018-06-21T09:28:00.378Z,4.77
2018-06-21T09:30:28.135Z,4.37
2018-06-21T09:32:57.843Z,4.90
2018-06-21T09:35:25.612Z,4.43
2018-06-21T09:38:04.729Z,5.53
2018-06-21T09:40:38.029Z,4.27
2018-06-21T09:43:11.364Z,3.77
2018-06-21T09:45:44.791Z,3.63
2018-06-21T09:48:18.145Z,3.03
2018-06-21T09:50:45.967Z,3.00
2018-06-21T09:53:13.769Z,3.40
2018-06-21T09:55:41.458Z,3.60
2018-06-21T09:58:09.145Z,7.20
2018-06-21T10:00:42.566Z,4.60
2018-06-21T10:03:10.305Z,3.47
2018-06-21T10:05:38.144Z,3.90
2018-06-21T10:08:05.895Z,3.60
2018-06-21T10:10:33.639Z,2.93
2018-06-21T10:13:01.425Z,4.00
2018-06-21T10:15:29.196Z,3.60
2018-06-21T10:17:58.862Z,3.40
2018-06-21T10:20:26.719Z,3.17
2018-06-21T10:22:54.928Z,5.23
2018-06-21T10:25:23.081Z,3.60
2018-06-21T10:27:51.546Z,4.00
2018-06-21T10:30:19.707Z,5.20
2018-06-21T10:32:47.429Z,4.53
2018-06-21T10:35:15.207Z,4.50
2018-06-21T10:37:43.164Z,4.67
2018-06-21T10:40:11.134Z,4.70
2018-06-21T10:42:39.025Z,5.83
2018-06-21T10:45:07.075Z,5.13
2018-06-21T10:47:35.083Z,3.67
2018-06-21T10:50:02.868Z,4.13
2018-06-21T10:52:30.624Z,3.47
2018-06-21T10:54:58.571Z,4.83
2018-06-21T10:57:26.410Z,5.13
2018-06-21T10:59:54.122Z,3.70
2018-06-21T11:02:21.987Z,4.70
2018-06-21T11:04:49.735Z,6.93
2018-06-21T11:07:19.428Z,4.30
2018-06-21T11:09:47.102Z,4.53
2018-06-21T11:12:14.886Z,3.70
2018-06-21T11:14:58.366Z,3.33
2018-06-21T11:17:26.296Z,3.93
2018-06-21T11:19:54.689Z,3.17
2018-06-21T11:22:22.494Z,3.83
2018-06-21T11:24:50.221Z,3.27
2018-06-21T11:27:17.980Z,3.70
2018-06-21T11:29:45.597Z,3.87
2018-06-21T11:32:13.363Z,3.40
2018-06-21T11:34:41.241Z,3.23
2018-06-21T11:37:08.972Z,3.40
2018-06-21T11:39:36.859Z,6.10
2018-06-21T11:42:04.591Z,4.47
2018-06-21T11:44:32.337Z,7.00
2018-06-21T11:47:04.705Z,4.40
2018-06-21T11:49:56.348Z,5.53
2018-06-21T11:52:24.622Z,4.53
2018-06-21T11:54:52.265Z,3.33
2018-06-21T11:57:20.003Z,4.47
2018-06-21T11:59:48.550Z,4.43
2018-06-21T12:02:16.407Z,3.50
2018-06-21T12:04:44.362Z,4.20
2018-06-21T12:07:13.386Z,5.00
2018-06-21T12:09:41.177Z,4.57
2018-06-21T12:15:02.125Z,3.43
2018-06-21T12:17:30.000Z,4.83
2018-06-21T12:19:58.374Z,5.50
2018-06-21T12:22:26.145Z,4.40
2018-06-21T12:24:54.062Z,4.10
2018-06-21T12:27:21.866Z,4.07
2018-06-21T12:29:50.538Z,3.63
2018-06-21T12:32:18.401Z,3.20
2018-06-21T12:34:46.311Z,2.67
2018-06-21T12:37:14.274Z,3.40
2018-06-21T12:39:42.663Z,4.00
2018-06-21T12:42:10.557Z,4.10
2018-06-21T12:44:38.373Z,3.57
2018-06-21T12:47:06.165Z,4.53
2018-06-21T12:49:34.259Z,6.03
2018-06-21T12:52:02.266Z,3.27
2018-06-21T12:54:30.171Z,5.60
2018-06-21T12:56:58.350Z,3.63
2018-06-21T12:59:26.153Z,4.23
2018-06-21T13:01:58.098Z,3.70
2018-06-21T13:04:29.560Z,3.77
2018-06-21T13:06:58.060Z,3.73
2018-06-21T13:09:36.981Z,3.73
2018-06-21T13:12:35.410Z,3.73
2018-06-21T13:15:03.756Z,3.27
2018-06-21T13:23:17.644Z,4.60
2018-06-21T13:25:45.576Z,3.67
2018-06-21T13:28:13.344Z,3.80
2018-06-21T13:30:43.536Z,3.73
2018-06-21T13:36:14.425Z,4.10
2018-06-21T13:38:42.217Z,4.80
2018-06-21T13:41:09.924Z,4.33
2018-06-21T13:43:38.246Z,4.43
2018-06-21T13:46:08.427Z,4.30
2018-06-21T13:48:40.218Z,5.80
2018-06-21T13:51:08.014Z,3.87
2018-06-21T13:53:37.010Z,5.47
2018-06-21T13:56:32.589Z,4.30
2018-06-21T13:59:05.015Z,4.43
2018-06-21T14:01:32.805Z,4.47
2018-06-21T14:04:00.510Z,4.40
2018-06-21T14:06:28.425Z,4.50
2018-06-21T14:08:56.327Z,4.67
2018-06-21T14:11:24.142Z,4.97
2018-06-21T14:13:51.925Z,4.57
2018-06-21T14:16:19.765Z,4.37
2018-06-21T14:19:20.694Z,4.17
2018-06-21T14:22:06.890Z,3.90
2018-06-21T14:24:34.609Z,3.80
2018-06-21T14:27:08.220Z,3.60
2018-06-21T14:29:36.866Z,3.60
2018-06-21T14:32:04.585Z,3.27
2018-06-21T14:34:32.293Z,2.83
2018-06-21T14:37:00.009Z,3.03
2018-06-21T14:39:27.742Z,5.20
2018-06-21T14:41:55.501Z,3.10
2018-06-21T14:44:23.286Z,3.10
2018-06-21T14:46:51.035Z,2.57
2018-06-21T14:49:18.982Z,2.20
2018-06-21T14:51:46.819Z,3.40
2018-06-21T14:54:14.613Z,3.20
2018-06-21T14:56:42.430Z,2.70
2018-06-21T14:59:10.118Z,3.33
2018-06-21T15:01:37.857Z,8.20
2018-06-21T15:04:05.567Z,3.83
2018-06-21T15:06:33.294Z,3.97
2018-06-21T15:09:01.090Z,2.93
2018-06-21T15:11:28.806Z,3.93
2018-06-21T15:13:56.467Z,3.40
2018-06-21T15:16:24.218Z,3.53
2018-06-21T15:18:51.982Z,3.13
2018-06-21T15:21:19.705Z,2.50
2018-06-21T15:23:47.743Z,3.60
2018-06-21T15:26:15.554Z,3.93
2018-06-21T15:28:43.580Z,2.53
2018-06-21T15:31:11.425Z,2.70
2018-06-21T15:33:42.361Z,3.93
2018-06-21T15:36:10.321Z,3.53
2018-06-21T15:38:38.528Z,4.53
2018-06-21T15:41:07.180Z,3.10
2018-06-21T15:43:35.753Z,3.00
2018-06-21T15:46:03.795Z,2.90
2018-06-21T15:48:32.219Z,5.63
2018-06-21T15:51:00.563Z,3.17
2018-06-21T15:53:28.716Z,3.00
2018-06-21T15:55:57.241Z,3.47
2018-06-21T15:58:25.790Z,3.47
2018-06-21T16:03:47.311Z,3.20
2018-06-21T16:06:16.086Z,4.00
2018-06-21T16:08:44.325Z,3.00
2018-06-21T16:11:13.354Z,3.23
2018-06-21T16:13:41.939Z,3.17
2018-06-21T16:16:10.635Z,3.13
2018-06-21T16:18:38.928Z,2.57
2018-06-21T16:21:07.334Z,3.67
2018-06-21T16:23:35.722Z,2.70
2018-06-21T16:26:03.925Z,2.87
2018-06-21T16:28:32.621Z,2.63
2018-06-21T16:31:00.762Z,2.73
2018-06-21T16:33:35.444Z,3.13
2018-06-21T16:36:03.782Z,3.23
2018-06-21T16:38:32.326Z,2.70
2018-06-21T16:41:00.842Z,3.03
2018-06-21T16:43:29.504Z,3.07
2018-06-21T16:45:58.166Z,3.10
2018-06-21T16:48:27.242Z,2.70
2018-06-21T16:50:55.473Z,3.10
2018-06-21T16:53:23.615Z,2.90
2018-06-21T16:55:51.721Z,2.60
2018-06-21T16:58:19.845Z,2.90
2018-06-21T17:00:48.437Z,3.23
2018-06-21T17:03:17.048Z,2.60
2018-06-21T17:05:45.044Z,3.27
2018-06-21T17:08:13.204Z,3.23
2018-06-21T17:10:41.552Z,3.07
2018-06-21T17:13:09.894Z,2.70
2018-06-21T17:15:39.038Z,3.33
2018-06-21T17:18:07.428Z,3.33
2018-06-21T17:20:35.368Z,3.37
2018-06-21T17:23:03.629Z,3.10
2018-06-21T17:25:31.679Z,3.47
2018-06-21T17:27:59.975Z,3.47
2018-06-21T17:30:49.767Z,3.80
2018-06-21T17:33:26.125Z,3.30
2018-06-21T17:35:54.207Z,4.00
2018-06-21T17:38:22.579Z,3.90
2018-06-21T17:40:51.425Z,3.97
2018-06-21T17:43:19.727Z,3.60
2018-06-21T17:45:48.169Z,4.87
2018-06-21T17:48:16.514Z,4.20
2018-06-21T17:50:44.633Z,4.00
2018-06-21T17:53:13.202Z,4.87
2018-06-21T17:55:41.373Z,3.93
2018-06-21T17:58:11.023Z,4.37
2018-06-21T18:00:40.879Z,4.33
2018-06-21T18:03:12.721Z,4.30
2018-06-21T18:05:41.147Z,5.00
2018-06-21T18:08:09.306Z,4.57
2018-06-21T18:10:37.650Z,5.03
2018-06-21T18:13:06.174Z,5.00
2018-06-21T18:15:34.573Z,4.83
2018-06-21T18:18:03.040Z,4.90
2018-06-21T18:20:31.172Z,4.20
2018-06-21T18:22:59.259Z,4.50
2018-06-21T18:25:27.404Z,6.40
2018-06-21T18:27:56.569Z,6.00
2018-06-21T18:30:25.129Z,3.93
2018-06-21T18:32:53.017Z,4.10
2018-06-21T18:35:20.845Z,4.20
2018-06-21T18:37:48.705Z,5.07
2018-06-21T18:40:16.743Z,6.77
2018-06-21T18:42:44.951Z,3.70
2018-06-21T18:45:12.764Z,3.47
2018-06-21T18:47:40.562Z,4.90
2018-06-21T18:50:08.407Z,4.60
2018-06-21T18:52:37.281Z,3.57
2018-06-21T18:55:05.204Z,3.27
2018-06-21T18:57:32.911Z,3.80
2018-06-21T19:00:00.725Z,6.60
2018-06-21T19:02:28.772Z,3.00
2018-06-21T19:04:56.640Z,3.70
2018-06-21T19:07:29.925Z,4.00
2018-06-21T19:10:03.453Z,3.70
2018-06-21T19:12:31.394Z,6.73
2018-06-21T19:14:59.338Z,9.70
2018-06-21T19:17:27.701Z,5.00
2018-06-21T19:19:55.662Z,5.30
2018-06-21T19:22:23.434Z,3.27
2018-06-21T19:24:51.442Z,3.63
2018-06-21T19:27:22.838Z,2.97
2018-06-21T19:29:50.764Z,6.67
2018-06-21T19:32:18.731Z,5.90
2018-06-21T19:34:46.499Z,4.70
2018-06-21T19:37:14.263Z,4.93
2018-06-21T19:39:42.217Z,2.80
2018-06-21T19:42:10.008Z,4.37
2018-06-21T19:44:37.754Z,4.00
2018-06-21T19:47:12.882Z,5.70
2018-06-21T19:49:40.686Z,5.03
2018-06-21T19:52:08.430Z,6.07
2018-06-21T20:07:40.704Z,3.57
2018-06-21T20:10:08.433Z,3.90
2018-06-21T20:12:36.479Z,2.40
2018-06-21T20:15:05.909Z,4.47
2018-06-21T20:17:33.645Z,1.70
2018-06-21T20:20:07.016Z,2.20
2018-06-21T20:22:34.947Z,5.70
2018-06-21T20:25:03.018Z,3.50
2018-06-21T20:27:31.834Z,4.40
2018-06-21T20:29:59.668Z,3.80
2018-06-21T20:32:27.426Z,4.23
2018-06-21T20:34:55.182Z,3.10
2018-06-21T20:37:22.963Z,2.10
2018-06-21T20:39:50.690Z,1.73
2018-06-21T20:42:19.842Z,2.87
2018-06-21T20:44:47.650Z,2.43
2018-06-21T20:47:15.474Z,4.60
2018-06-21T20:49:43.217Z,3.20
2018-06-21T20:52:16.467Z,5.00
2018-06-21T20:54:44.204Z,3.57
2018-06-21T20:57:12.034Z,3.07
2018-06-21T20:59:39.800Z,2.90
2018-06-21T21:02:07.606Z,4.47
2018-06-21T21:05:11.842Z,3.63
2018-06-21T21:10:32.964Z,5.23
2018-06-21T21:13:00.771Z,1.03
2018-06-21T21:15:28.501Z,2.93
2018-06-21T21:17:56.262Z,3.30
2018-06-21T21:20:24.030Z,3.60
2018-06-21T21:22:51.741Z,4.00
2018-06-21T21:25:19.462Z,3.57
2018-06-21T21:27:47.485Z,3.03
2018-06-21T21:30:15.239Z,2.93
2018-06-21T21:32:43.025Z,3.20
2018-06-21T21:35:11.021Z,2.63
2018-06-21T21:37:38.815Z,3.10
2018-06-21T21:40:07.709Z,3.07
2018-06-21T21:42:36.732Z,4.00
2018-06-21T21:45:04.746Z,4.87
2018-06-21T21:47:32.364Z,1.73
2018-06-21T21:50:00.106Z,3.90
2018-06-21T21:52:27.844Z,1.87
2018-06-21T21:54:55.665Z,4.90
2018-06-21T21:57:23.450Z,3.23
2018-06-21T21:59:51.275Z,7.67
2018-06-21T22:02:19.364Z,2.20
2018-06-21T22:04:47.468Z,5.83
2018-06-21T22:07:15.303Z,4.90
2018-06-21T22:09:43.774Z,3.80
2018-06-21T22:12:11.519Z,3.07
2018-06-21T22:14:39.303Z,3.03
2018-06-21T22:17:07.077Z,4.07
2018-06-21T22:19:34.789Z,3.83
2018-06-21T22:22:02.499Z,3.73
2018-06-21T22:24:30.290Z,5.10
2018-06-21T22:26:58.070Z,1.97
2018-06-21T22:29:25.779Z,6.03
2018-06-21T22:31:53.858Z,2.50
2018-06-21T22:34:21.686Z,3.73
2018-06-21T22:36:49.536Z,6.10
2018-06-21T22:39:17.219Z,1.63
2018-06-21T22:41:45.211Z,2.80
2018-06-21T22:44:13.477Z,8.23
2018-06-21T22:46:41.353Z,3.40
2018-06-21T22:49:09.536Z,8.00
2018-06-21T22:51:37.541Z,3.87
2018-06-21T22:54:05.823Z,6.83
2018-06-21T22:56:34.137Z,4.63
2018-06-21T22:59:02.025Z,5.30
2018-06-21T23:01:29.938Z,4.30
2018-06-21T23:03:57.731Z,2.37
2018-06-21T23:06:25.537Z,2.60
2018-06-21T23:08:53.299Z,3.37
2018-06-21T23:11:21.086Z,4.70
2018-06-21T23:13:48.798Z,2.13
2018-06-21T23:16:16.509Z,3.83
2018-06-21T23:18:55.341Z,3.53
2018-06-21T23:21:23.121Z,6.30
2018-06-21T23:23:50.921Z,2.50
2018-06-21T23:26:18.788Z,3.40
2018-06-21T23:28:46.499Z,2.67
2018-06-21T23:31:14.216Z,3.13
2018-06-21T23:33:42.002Z,7.80
2018-06-21T23:36:09.745Z,9.83
2018-06-21T23:38:37.492Z,3.40
2018-06-21T23:41:05.289Z,4.70
2018-06-21T23:43:33.223Z,3.80
2018-06-21T23:46:01.277Z,5.23
2018-06-21T23:48:29.020Z,5.10
2018-06-21T23:50:56.711Z,3.60
2018-06-21T23:53:24.754Z,3.33
2018-06-21T23:55:52.445Z,4.47
2018-06-21T23:58:20.210Z,6.73
